createdAt,value
2022-12-26T00:01:49.353Z,5.00
2022-12-26T00:04:51.759Z,4.70
2022-12-26T00:07:04.892Z,4.63
2022-12-26T00:09:33.839Z,4.80
2022-12-26T00:12:00.713Z,5.70
2022-12-26T00:14:27.686Z,4.63
2022-12-26T00:16:54.576Z,6.57
2022-12-26T00:19:21.466Z,4.43
2022-12-26T00:21:48.389Z,4.73
2022-12-26T00:24:15.374Z,4.97
2022-12-26T00:26:42.210Z,4.20
2022-12-26T00:29:09.074Z,4.20
2022-12-26T00:31:36.079Z,3.87
2022-12-26T00:34:03.321Z,4.93
2022-12-26T00:36:33.671Z,5.87
2022-12-26T00:39:04.170Z,4.50
2022-12-26T00:41:31.455Z,4.03
2022-12-26T00:43:58.860Z,4.10
2022-12-26T00:46:27.836Z,4.40
2022-12-26T00:48:55.472Z,4.77
2022-12-26T00:51:22.690Z,4.67
2022-12-26T00:53:50.134Z,4.40
2022-12-26T00:56:17.372Z,3.53
2022-12-26T00:58:44.441Z,4.50
2022-12-26T01:01:21.732Z,4.17
2022-12-26T01:03:52.051Z,3.60
2022-12-26T01:06:19.036Z,3.30
2022-12-26T01:08:46.338Z,4.00
2022-12-26T01:11:36.915Z,3.63
2022-12-26T01:14:05.759Z,4.13
2022-12-26T01:16:32.755Z,3.90
2022-12-26T01:18:59.775Z,3.93
2022-12-26T01:21:26.703Z,3.60
2022-12-26T01:23:53.550Z,3.90
2022-12-26T01:26:20.506Z,3.83
2022-12-26T01:28:53.136Z,3.63
2022-12-26T01:31:22.683Z,4.00
2022-12-26T01:33:49.889Z,3.50
2022-12-26T01:36:18.052Z,3.33
2022-12-26T01:38:45.933Z,3.03
2022-12-26T01:41:20.563Z,2.60
2022-12-26T01:43:57.648Z,4.20
2022-12-26T01:46:46.521Z,4.20
2022-12-26T01:49:35.571Z,3.30
2022-12-26T01:52:12.036Z,3.10
2022-12-26T01:54:49.177Z,3.60
2022-12-26T01:57:37.760Z,3.77
2022-12-26T02:00:06.587Z,3.43
2022-12-26T02:02:57.052Z,3.60
2022-12-26T02:05:34.888Z,4.07
2022-12-26T02:08:14.072Z,4.60
2022-12-26T02:11:25.461Z,4.23
2022-12-26T02:13:52.724Z,3.27
2022-12-26T02:16:20.884Z,3.63
2022-12-26T02:18:47.782Z,4.07
2022-12-26T02:21:32.713Z,3.70
2022-12-26T02:25:01.852Z,4.03
2022-12-26T02:28:30.508Z,4.10
2022-12-26T02:31:59.937Z,4.60
2022-12-26T02:34:57.382Z,4.20
2022-12-26T02:38:24.036Z,4.60
2022-12-26T02:41:14.021Z,3.63
2022-12-26T02:44:42.903Z,4.53
2022-12-26T02:47:38.760Z,4.47
2022-12-26T02:51:17.837Z,4.03
2022-12-26T02:54:57.656Z,4.00
2022-12-26T02:58:02.019Z,4.50
2022-12-26T03:00:51.604Z,4.60
2022-12-26T03:03:51.452Z,4.00
2022-12-26T03:06:48.628Z,4.30
2022-12-26T03:09:49.597Z,4.30
2022-12-26T03:13:04.459Z,4.20
2022-12-26T03:15:58.336Z,4.27
2022-12-26T03:18:58.917Z,4.17
2022-12-26T03:21:26.333Z,4.17
2022-12-26T03:23:56.760Z,4.40
2022-12-26T03:26:42.323Z,4.07
2022-12-26T03:29:40.774Z,4.63
2022-12-26T03:32:12.693Z,4.57
2022-12-26T03:34:44.960Z,3.60
2022-12-26T03:38:06.900Z,4.50
2022-12-26T03:41:25.067Z,3.73
2022-12-26T03:44:53.458Z,4.27
2022-12-26T03:48:05.395Z,4.50
2022-12-26T03:51:07.208Z,3.70
2022-12-26T03:54:24.489Z,4.07
2022-12-26T03:57:24.220Z,3.33
2022-12-26T04:00:24.976Z,3.60
2022-12-26T04:03:19.158Z,2.70
2022-12-26T04:06:11.097Z,3.47
2022-12-26T04:09:26.026Z,3.10
2022-12-26T04:12:17.646Z,2.50
2022-12-26T04:15:22.663Z,2.90
2022-12-26T04:18:43.534Z,3.07
2022-12-26T04:22:07.799Z,2.93
2022-12-26T04:25:06.329Z,2.60
2022-12-26T04:27:52.826Z,3.27
2022-12-26T04:30:38.390Z,2.80
2022-12-26T04:33:43.035Z,3.00
2022-12-26T04:36:51.526Z,2.90
2022-12-26T04:39:49.412Z,2.70
2022-12-26T04:42:38.430Z,2.57
2022-12-26T04:45:08.671Z,2.80
2022-12-26T04:47:36.156Z,2.70
2022-12-26T04:50:12.971Z,2.63
2022-12-26T04:53:00.962Z,2.57
2022-12-26T04:55:32.761Z,2.10
2022-12-26T04:58:00.419Z,2.90
2022-12-26T05:00:29.230Z,3.00
2022-12-26T05:03:19.204Z,3.50
2022-12-26T05:06:10.597Z,2.83
2022-12-26T05:09:02.261Z,3.00
2022-12-26T05:11:33.553Z,3.47
2022-12-26T05:14:01.373Z,3.13
2022-12-26T05:16:47.502Z,3.10
2022-12-26T05:19:36.454Z,3.10
2022-12-26T05:22:24.059Z,3.03
2022-12-26T05:25:10.946Z,3.07
2022-12-26T05:28:02.565Z,2.80
2022-12-26T05:30:29.660Z,3.30
2022-12-26T05:33:15.106Z,3.10
2022-12-26T05:35:42.252Z,3.10
2022-12-26T05:38:11.723Z,2.63
2022-12-26T05:40:38.589Z,3.03
2022-12-26T05:43:05.455Z,3.33
2022-12-26T05:45:32.390Z,3.30
2022-12-26T05:48:03.221Z,3.10
2022-12-26T05:50:30.172Z,2.97
2022-12-26T05:52:58.906Z,2.83
2022-12-26T05:55:26.871Z,2.80
2022-12-26T05:57:53.826Z,3.70
2022-12-26T06:00:21.295Z,2.87
2022-12-26T06:02:48.233Z,2.80
2022-12-26T06:05:15.274Z,3.03
2022-12-26T06:07:42.357Z,2.93
2022-12-26T06:10:10.379Z,2.73
2022-12-26T06:12:37.395Z,3.20
2022-12-26T06:15:04.945Z,3.03
2022-12-26T06:17:32.007Z,2.93
2022-12-26T06:19:59.113Z,2.80
2022-12-26T06:22:28.853Z,3.17
2022-12-26T06:24:55.862Z,3.13
2022-12-26T06:27:23.240Z,3.10
2022-12-26T06:29:50.177Z,2.53
2022-12-26T06:32:17.153Z,2.90
2022-12-26T06:34:44.019Z,3.10
2022-12-26T06:37:10.984Z,3.10
2022-12-26T06:39:37.830Z,2.93
2022-12-26T06:42:05.167Z,3.00
2022-12-26T06:44:32.052Z,2.93
2022-12-26T06:46:58.963Z,2.97
2022-12-26T06:49:32.103Z,3.10
2022-12-26T06:51:59.680Z,3.23
2022-12-26T06:54:26.799Z,3.40
2022-12-26T06:56:53.646Z,3.83
2022-12-26T06:59:20.544Z,2.70
2022-12-26T07:01:48.068Z,3.03
2022-12-26T07:04:15.060Z,3.30
2022-12-26T07:06:42.172Z,3.73
2022-12-26T07:09:14.705Z,3.40
2022-12-26T07:11:50.453Z,3.10
2022-12-26T07:14:17.633Z,3.40
2022-12-26T07:16:45.731Z,3.27
2022-12-26T07:19:16.003Z,3.43
2022-12-26T07:21:43.893Z,3.37
2022-12-26T07:24:19.905Z,3.93
2022-12-26T07:26:48.769Z,3.23
2022-12-26T07:29:16.453Z,3.80
2022-12-26T07:31:43.799Z,2.70
2022-12-26T07:34:10.913Z,3.30
2022-12-26T07:36:37.791Z,3.57
2022-12-26T07:39:04.800Z,3.97
2022-12-26T07:41:50.376Z,3.47
2022-12-26T07:44:17.261Z,3.63
2022-12-26T07:46:46.439Z,3.43
2022-12-26T07:49:14.001Z,3.80
2022-12-26T07:51:42.894Z,3.67
2022-12-26T07:54:11.957Z,3.77
2022-12-26T07:56:41.447Z,3.97
2022-12-26T07:59:17.948Z,3.10
2022-12-26T08:01:45.258Z,2.83
2022-12-26T08:04:13.393Z,3.27
2022-12-26T08:06:40.923Z,2.90
2022-12-26T08:09:11.825Z,3.60
2022-12-26T08:11:38.665Z,3.10
2022-12-26T08:14:05.519Z,2.77
2022-12-26T08:16:32.429Z,3.40
2022-12-26T08:19:03.648Z,3.20
2022-12-26T08:21:31.192Z,3.07
2022-12-26T08:23:58.036Z,2.90
2022-12-26T08:26:24.927Z,2.63
2022-12-26T08:28:52.685Z,2.83
2022-12-26T08:31:21.249Z,3.07
2022-12-26T08:33:49.365Z,2.87
2022-12-26T08:36:18.184Z,3.40
2022-12-26T08:38:46.178Z,3.43
2022-12-26T08:41:13.262Z,2.77
2022-12-26T08:44:42.171Z,3.33
2022-12-26T08:46:27.579Z,2.97
2022-12-26T08:48:54.620Z,2.80
2022-12-26T08:51:25.097Z,3.87
2022-12-26T08:53:55.063Z,3.70
2022-12-26T08:56:27.392Z,3.20
2022-12-26T08:58:55.313Z,3.27
2022-12-26T09:04:03.849Z,4.00
2022-12-26T09:06:36.822Z,3.63
2022-12-26T09:09:06.734Z,3.80
2022-12-26T09:11:33.627Z,3.57
2022-12-26T09:14:03.911Z,3.40
2022-12-26T09:16:41.976Z,3.43
2022-12-26T09:19:17.540Z,4.37
2022-12-26T09:21:45.168Z,3.73
2022-12-26T09:24:17.107Z,4.00
2022-12-26T09:26:45.169Z,3.43
2022-12-26T09:29:13.646Z,3.80
2022-12-26T09:31:40.775Z,3.10
2022-12-26T09:34:08.767Z,3.63
2022-12-26T09:36:38.492Z,3.70
2022-12-26T09:39:07.094Z,3.50
2022-12-26T09:42:25.336Z,3.60
2022-12-26T09:45:33.042Z,4.30
2022-12-26T09:48:20.355Z,3.80
2022-12-26T09:50:51.965Z,3.77
2022-12-26T09:53:34.572Z,3.80
2022-12-26T09:56:23.690Z,4.03
2022-12-26T09:59:08.595Z,5.03
2022-12-26T10:01:37.179Z,4.60
2022-12-26T10:04:29.688Z,4.27
2022-12-26T10:07:30.837Z,4.93
2022-12-26T10:10:32.410Z,3.63
2022-12-26T10:13:43.308Z,4.53
2022-12-26T10:17:00.355Z,4.23
2022-12-26T10:20:21.650Z,4.67
2022-12-26T10:23:28.123Z,4.33
2022-12-26T10:26:32.582Z,4.63
2022-12-26T10:29:28.188Z,6.10
2022-12-26T10:32:14.253Z,4.07
2022-12-26T10:34:47.177Z,4.90
2022-12-26T10:37:35.305Z,4.23
2022-12-26T10:40:36.884Z,7.60
2022-12-26T10:43:35.564Z,9.03
2022-12-26T10:47:11.142Z,6.80
2022-12-26T10:49:38.740Z,6.70
2022-12-26T10:52:05.896Z,5.47
2022-12-26T10:54:32.959Z,5.93
2022-12-26T10:57:02.435Z,7.33
2022-12-26T10:59:51.807Z,6.90
2022-12-26T11:02:30.846Z,6.90
2022-12-26T11:08:43.132Z,8.57
2022-12-26T11:11:48.091Z,7.43
2022-12-26T11:14:38.660Z,7.67
2022-12-26T11:17:23.857Z,6.60
2022-12-26T11:20:15.189Z,6.77
2022-12-26T11:22:46.932Z,7.67
2022-12-26T11:25:27.624Z,8.63
2022-12-26T11:27:59.115Z,8.30
2022-12-26T11:30:38.400Z,9.17
2022-12-26T11:33:22.881Z,11.63
2022-12-26T11:36:15.731Z,11.13
2022-12-26T11:39:18.763Z,13.57
2022-12-26T11:41:49.006Z,7.07
2022-12-26T11:44:30.300Z,8.27
2022-12-26T11:47:10.317Z,7.27
2022-12-26T11:49:49.938Z,6.40
2022-12-26T11:52:45.377Z,6.70
2022-12-26T11:55:33.853Z,7.40
2022-12-26T11:58:25.270Z,7.67
2022-12-26T12:00:54.210Z,7.50
2022-12-26T12:03:49.771Z,7.83
2022-12-26T12:06:27.108Z,7.30
2022-12-26T12:09:21.109Z,7.27
2022-12-26T12:12:22.808Z,7.87
2022-12-26T12:15:35.237Z,6.70
2022-12-26T12:18:30.383Z,7.00
2022-12-26T12:21:39.522Z,7.23
2022-12-26T12:24:57.214Z,7.30
2022-12-26T12:27:50.688Z,8.03
2022-12-26T12:30:34.043Z,6.70
2022-12-26T12:33:55.255Z,7.13
2022-12-26T12:36:53.664Z,5.17
2022-12-26T12:40:06.868Z,6.57
2022-12-26T12:43:18.073Z,23.43
2022-12-26T12:46:15.674Z,12.10
2022-12-26T12:49:38.451Z,8.40
2022-12-26T12:53:13.220Z,8.90
2022-12-26T12:56:30.593Z,6.10
2022-12-26T12:59:46.860Z,6.57
2022-12-26T13:02:40.143Z,6.37
2022-12-26T13:05:48.993Z,7.03
2022-12-26T13:08:36.433Z,6.87
2022-12-26T13:11:20.673Z,5.50
2022-12-26T13:14:02.612Z,5.97
2022-12-26T13:16:43.400Z,6.47
2022-12-26T13:19:34.759Z,5.77
2022-12-26T13:22:11.736Z,5.80
2022-12-26T13:24:58.292Z,5.50
2022-12-26T13:27:36.833Z,5.87
2022-12-26T13:30:18.176Z,5.70
2022-12-26T13:32:46.820Z,5.43
2022-12-26T13:35:57.689Z,4.93
2022-12-26T13:38:54.287Z,4.90
2022-12-26T13:41:41.287Z,5.80
2022-12-26T13:44:27.645Z,5.07
2022-12-26T13:46:59.033Z,5.43
2022-12-26T13:49:41.012Z,5.27
2022-12-26T13:52:11.266Z,4.67
2022-12-26T13:55:07.144Z,5.77
2022-12-26T13:57:44.953Z,4.60
2022-12-26T14:00:48.063Z,5.23
2022-12-26T14:03:55.067Z,3.77
2022-12-26T14:06:42.973Z,3.87
2022-12-26T14:09:48.092Z,3.67
2022-12-26T14:13:18.897Z,3.70
2022-12-26T14:16:22.777Z,3.20
2022-12-26T14:19:27.632Z,3.50
2022-12-26T14:22:30.512Z,3.40
2022-12-26T14:25:26.502Z,2.73
2022-12-26T14:28:25.092Z,3.70
2022-12-26T14:31:24.988Z,3.20
2022-12-26T14:34:15.291Z,2.87
2022-12-26T14:37:24.957Z,3.10
2022-12-26T14:40:34.491Z,2.67
2022-12-26T14:43:28.862Z,1.93
2022-12-26T14:45:57.433Z,2.10
2022-12-26T14:48:24.277Z,1.80
2022-12-26T14:51:04.507Z,2.20
2022-12-26T14:53:36.238Z,1.70
2022-12-26T14:56:36.498Z,1.90
2022-12-26T14:59:33.527Z,1.90
2022-12-26T15:02:08.205Z,2.10
2022-12-26T15:05:10.840Z,1.83
2022-12-26T15:08:46.143Z,2.10
2022-12-26T15:12:02.791Z,2.27
2022-12-26T15:15:21.023Z,2.40
2022-12-26T15:18:48.338Z,2.17
2022-12-26T15:21:51.713Z,2.10
2022-12-26T15:25:21.382Z,2.10
2022-12-26T15:27:57.522Z,2.00
2022-12-26T15:31:19.578Z,2.27
2022-12-26T15:34:46.471Z,2.30
2022-12-26T15:38:20.218Z,2.30
2022-12-26T15:41:16.011Z,7.90
2022-12-26T15:44:33.709Z,2.30
2022-12-26T15:47:48.639Z,1.80
2022-12-26T15:51:00.497Z,1.97
2022-12-26T15:54:23.863Z,2.00
2022-12-26T15:57:01.353Z,2.93
2022-12-26T16:00:03.710Z,2.30
2022-12-26T16:02:42.478Z,3.77
2022-12-26T16:05:45.768Z,2.07
2022-12-26T16:09:13.138Z,3.03
2022-12-26T16:11:52.055Z,2.93
2022-12-26T16:14:39.558Z,2.90
2022-12-26T16:17:13.789Z,2.13
2022-12-26T16:19:53.370Z,3.80
2022-12-26T16:22:44.229Z,2.83
2022-12-26T16:25:24.162Z,3.27
2022-12-26T16:27:59.576Z,3.70
2022-12-26T16:30:37.536Z,3.53
2022-12-26T16:33:06.656Z,2.80
2022-12-26T16:35:40.207Z,2.67
2022-12-26T16:38:15.780Z,2.03
2022-12-26T16:40:50.571Z,2.23
2022-12-26T16:43:30.877Z,2.00
2022-12-26T16:46:05.987Z,2.33
2022-12-26T16:48:36.705Z,2.10
2022-12-26T16:52:00.313Z,2.93
2022-12-26T16:54:38.518Z,2.83
2022-12-26T16:57:21.059Z,1.80
2022-12-26T16:59:59.390Z,2.30
2022-12-26T17:02:35.430Z,2.20
2022-12-26T17:05:32.845Z,2.40
2022-12-26T17:08:04.200Z,1.93
2022-12-26T17:10:37.467Z,1.67
2022-12-26T17:13:09.611Z,1.73
2022-12-26T17:15:53.120Z,2.03
2022-12-26T17:18:52.365Z,2.30
2022-12-26T17:21:32.410Z,1.83
2022-12-26T17:24:08.529Z,2.40
2022-12-26T17:26:43.173Z,2.60
2022-12-26T17:29:50.790Z,2.23
2022-12-26T17:32:44.411Z,2.30
2022-12-26T17:35:27.563Z,2.50
2022-12-26T17:38:06.804Z,2.70
2022-12-26T17:40:41.006Z,2.70
2022-12-26T17:43:11.247Z,2.47
2022-12-26T17:45:46.649Z,2.80
2022-12-26T17:48:14.324Z,3.07
2022-12-26T17:50:47.807Z,3.20
2022-12-26T17:53:41.856Z,3.90
2022-12-26T17:56:22.496Z,3.90
2022-12-26T17:58:50.399Z,3.77
2022-12-26T18:01:21.368Z,3.17
2022-12-26T18:03:49.417Z,3.63
2022-12-26T18:06:17.350Z,3.13
2022-12-26T18:08:45.294Z,5.27
2022-12-26T18:11:14.682Z,3.40
2022-12-26T18:13:44.173Z,6.20
2022-12-26T18:16:19.435Z,14.23
2022-12-26T18:18:48.276Z,7.73
2022-12-26T18:21:16.811Z,3.30
2022-12-26T18:23:44.145Z,3.20
2022-12-26T18:26:29.136Z,2.83
2022-12-26T18:28:56.623Z,3.40
2022-12-26T18:31:26.328Z,3.40
2022-12-26T18:33:54.508Z,4.67
2022-12-26T18:36:31.822Z,4.17
2022-12-26T18:38:59.082Z,4.00
2022-12-26T18:41:28.136Z,3.23
2022-12-26T18:43:55.045Z,4.40
2022-12-26T18:46:28.823Z,3.23
2022-12-26T18:48:57.315Z,3.93
2022-12-26T18:51:27.681Z,7.27
2022-12-26T18:53:55.050Z,11.33
2022-12-26T18:56:23.323Z,13.07
2022-12-26T18:58:57.506Z,6.67
2022-12-26T19:01:26.236Z,5.33
2022-12-26T19:03:53.852Z,5.07
2022-12-26T19:06:27.715Z,6.00
2022-12-26T19:08:55.223Z,4.80
2022-12-26T19:11:22.514Z,5.43
2022-12-26T19:13:49.519Z,5.30
2022-12-26T19:16:16.504Z,4.23
2022-12-26T19:18:43.435Z,4.50
2022-12-26T19:21:16.012Z,4.90
2022-12-26T19:23:47.553Z,5.37
2022-12-26T19:26:19.755Z,4.67
2022-12-26T19:28:53.598Z,5.37
2022-12-26T19:31:22.998Z,5.83
2022-12-26T19:33:50.357Z,4.43
2022-12-26T19:36:17.580Z,4.10
2022-12-26T19:38:44.550Z,4.00
2022-12-26T19:41:14.795Z,4.40
2022-12-26T19:43:42.647Z,6.03
2022-12-26T19:46:15.667Z,6.00
2022-12-26T19:48:43.378Z,3.73
2022-12-26T19:51:15.026Z,2.30
2022-12-26T19:53:43.653Z,1.53
2022-12-26T19:56:20.616Z,1.40
2022-12-26T19:58:54.550Z,1.80
2022-12-26T20:01:31.702Z,1.50
2022-12-26T20:04:06.942Z,1.50
2022-12-26T20:06:38.869Z,1.43
2022-12-26T20:09:13.945Z,1.63
2022-12-26T20:11:49.400Z,2.23
2022-12-26T20:14:20.873Z,1.97
2022-12-26T20:17:08.821Z,2.23
2022-12-26T20:19:37.588Z,1.50
2022-12-26T20:22:06.902Z,1.43
2022-12-26T20:24:35.037Z,1.60
2022-12-26T20:27:03.572Z,1.20
2022-12-26T20:29:31.014Z,1.30
2022-12-26T20:31:58.963Z,1.43
2022-12-26T20:34:26.294Z,2.10
2022-12-26T20:36:53.369Z,2.00
2022-12-26T20:39:20.991Z,2.30
2022-12-26T20:41:48.110Z,2.70
2022-12-26T20:44:18.974Z,3.13
2022-12-26T20:46:46.681Z,2.20
2022-12-26T20:49:14.281Z,1.47
2022-12-26T20:51:43.921Z,2.07
2022-12-26T20:54:15.382Z,2.10
2022-12-26T20:56:43.317Z,5.00
2022-12-26T20:59:10.470Z,3.63
2022-12-26T21:01:39.682Z,2.20
2022-12-26T21:04:08.318Z,2.30
2022-12-26T21:06:37.795Z,1.40
2022-12-26T21:09:06.740Z,1.67
2022-12-26T21:11:42.449Z,1.50
2022-12-26T21:14:20.455Z,1.60
2022-12-26T21:16:54.435Z,1.80
2022-12-26T21:19:25.387Z,1.57
2022-12-26T21:21:55.564Z,1.47
2022-12-26T21:24:31.191Z,1.93
2022-12-26T21:26:59.040Z,1.47
2022-12-26T21:29:33.996Z,1.50
2022-12-26T21:32:03.669Z,1.50
2022-12-26T21:34:32.813Z,1.10
2022-12-26T21:37:18.789Z,1.23
2022-12-26T21:39:47.024Z,1.30
2022-12-26T21:42:14.079Z,1.20
2022-12-26T21:44:41.116Z,1.43
2022-12-26T21:47:08.388Z,1.50
2022-12-26T21:49:37.159Z,1.40
2022-12-26T21:52:07.126Z,1.30
2022-12-26T21:54:53.599Z,1.40
2022-12-26T21:57:21.745Z,2.10
2022-12-26T21:59:59.004Z,1.40
2022-12-26T22:02:56.855Z,1.77
2022-12-26T22:05:29.463Z,1.80
2022-12-26T22:08:01.225Z,1.40
2022-12-26T22:10:51.883Z,1.50
2022-12-26T22:13:21.737Z,1.70
2022-12-26T22:16:03.505Z,1.60
2022-12-26T22:18:46.396Z,2.03
2022-12-26T22:21:20.576Z,1.57
2022-12-26T22:23:50.446Z,1.90
2022-12-26T22:26:21.581Z,1.40
2022-12-26T22:28:49.651Z,1.77
2022-12-26T22:31:32.129Z,1.50
2022-12-26T22:34:03.778Z,1.63
2022-12-26T22:36:32.797Z,1.63
2022-12-26T22:39:00.951Z,1.73
2022-12-26T22:41:29.112Z,1.60
2022-12-26T22:43:56.566Z,1.30
2022-12-26T22:46:24.191Z,1.73
2022-12-26T22:48:51.525Z,1.93
2022-12-26T22:51:24.897Z,1.50
2022-12-26T22:54:01.659Z,1.47
2022-12-26T22:56:29.547Z,1.80
2022-12-26T22:59:02.946Z,1.50
2022-12-26T23:01:30.734Z,1.83
2022-12-26T23:04:00.683Z,1.70
2022-12-26T23:06:36.812Z,1.73
2022-12-26T23:09:14.026Z,1.77
2022-12-26T23:11:41.776Z,2.10
2022-12-26T23:14:13.105Z,2.17
2022-12-26T23:16:57.181Z,2.20
2022-12-26T23:20:08.752Z,1.60
2022-12-26T23:22:36.660Z,1.57
2022-12-26T23:25:03.774Z,1.60
2022-12-26T23:27:49.116Z,1.57
2022-12-26T23:30:18.904Z,1.20
2022-12-26T23:32:52.503Z,1.50
2022-12-26T23:35:21.422Z,1.50
2022-12-26T23:37:48.579Z,1.20
2022-12-26T23:40:19.592Z,0.90
2022-12-26T23:42:46.905Z,1.20
2022-12-26T23:45:15.750Z,1.40
2022-12-26T23:47:45.225Z,0.90
2022-12-26T23:50:16.208Z,1.00
2022-12-26T23:52:44.307Z,1.47
2022-12-26T23:55:13.013Z,1.20
2022-12-26T23:57:39.992Z,1.40
